PWSweather.com
Personal Weather Stations
Station Observations
TOBYTEX1
Castle Hills North, Lewisville, TX 75056

Castle Hills NorthLewisville, TX 75056

Lat: 33.053555, Lon: -96.909778

Elevation: 527

Station Type: Davis Vantage Pro2 Plus

Latest ConditionsUpdated 5:29:58 PM CDT Monday, Oct 15, 2018
Currently Today's Max Today's Min Today's Average
Temperature 44.2°F6.8°C 51.3°F10.7°C 41.4°F5.2°C 44.0°F6.7°C
Dew Point 41.7°F5.4°C 49.1°F9.5°C 39.2°F4.0°C 41.8°F5.4°C
Winds 6.0 mph E9.7 kmh E 8.9 mph -14.3 kmh - - 6.1 mph 9.8 kmh
Wind Gusts 13.0 mph20.9 kmh 19.0 mph30.6 kmh - -
Humidity 91% 94% 89% 92%
Pressure 30.25 in1024.4 mb 30.30 in1026.1 mb 30.06 in1017.9 mb -
Precipitation - 1.41 in35.8 mm - -
Hour Temp Dew Point Humidity Winds Wind Gusts Pressure Precip Precip Rate Daily Precip Total
05:29 PM 44.2°F6.8°C 41.7°F5.4°C 91% 6.0 mph E9.7 kmh E 13.0 mph20.9 kmh 30.25 in1024.4 mb 0.02 in0.5 mm 0.00 in0.0 mm 1.41 in35.8 mm
05:24 PM 44.1°F6.7°C 41.9°F5.5°C 92% 4.9 mph NNE7.9 kmh NNE 13.0 mph20.9 kmh 30.26 in1024.7 mb 0.03 in0.8 mm 0.00 in0.0 mm 1.41 in35.8 mm
05:19 PM 44.1°F6.7°C 41.9°F5.5°C 92% 4.9 mph N7.9 kmh N 12.1 mph19.5 kmh 30.24 in1024.0 mb 0.04 in1.0 mm 0.00 in0.0 mm 1.41 in35.8 mm
05:14 PM 44.1°F6.7°C 41.9°F5.5°C 92% 4.9 mph NNE7.9 kmh NNE 16.1 mph25.9 kmh 30.24 in1024.0 mb 0.08 in2.0 mm 0.00 in0.0 mm 1.41 in35.8 mm
05:09 PM 44.1°F6.7°C 41.9°F5.5°C 92% 4.0 mph NW6.4 kmh NW 12.1 mph19.5 kmh 30.24 in1024.0 mb 0.09 in2.3 mm 0.00 in0.0 mm 1.41 in35.8 mm
05:04 PM 44.1°F6.7°C 41.9°F5.5°C 92% 2.9 mph N4.7 kmh N 10.1 mph16.3 kmh 30.25 in1024.4 mb 0.09 in2.3 mm 0.00 in0.0 mm 1.41 in35.8 mm
04:59 PM 44.1°F6.7°C 41.9°F5.5°C 92% 4.0 mph NW6.4 kmh NW 10.1 mph16.3 kmh 30.26 in1024.7 mb 0.09 in2.3 mm 0.00 in0.0 mm 1.41 in35.8 mm
04:54 PM 44.1°F6.7°C 41.9°F5.5°C 92% 4.9 mph NNW7.9 kmh NNW 13.0 mph20.9 kmh 30.26 in1024.7 mb 0.10 in2.5 mm 0.12 in3.0 mm 1.41 in35.8 mm
04:49 PM 44.1°F6.7°C 41.9°F5.5°C 92% 4.9 mph NNW7.9 kmh NNW 12.1 mph19.5 kmh 30.26 in1024.7 mb 0.09 in2.3 mm 0.00 in0.0 mm 1.40 in35.6 mm
04:44 PM 43.9°F6.6°C 41.7°F5.4°C 92% 6.0 mph NE9.7 kmh NE 12.1 mph19.5 kmh 30.25 in1024.4 mb 0.09 in2.3 mm 0.00 in0.0 mm 1.40 in35.6 mm
04:39 PM 43.7°F6.5°C 41.5°F5.3°C 92% 6.0 mph NNE9.7 kmh NNE 13.0 mph20.9 kmh 30.23 in1023.7 mb 0.10 in2.5 mm 0.12 in3.0 mm 1.40 in35.6 mm
04:34 PM 43.7°F6.5°C 41.5°F5.3°C 92% 4.9 mph ESE7.9 kmh ESE 13.0 mph20.9 kmh 30.25 in1024.4 mb 0.09 in2.3 mm 0.00 in0.0 mm 1.39 in35.3 mm
04:29 PM 43.7°F6.5°C 41.5°F5.3°C 92% 4.9 mph N7.9 kmh N 11.0 mph17.7 kmh 30.27 in1025.1 mb 0.09 in2.3 mm 0.12 in3.0 mm 1.39 in35.3 mm
04:24 PM 43.7°F6.5°C 41.5°F5.3°C 92% 4.9 mph N7.9 kmh N 13.0 mph20.9 kmh 30.27 in1025.1 mb 0.08 in2.0 mm 0.12 in3.0 mm 1.38 in35.1 mm
04:19 PM 43.9°F6.6°C 41.7°F5.4°C 92% 4.9 mph E7.9 kmh E 14.1 mph22.7 kmh 30.25 in1024.4 mb 0.07 in1.8 mm 0.48 in12.2 mm 1.37 in34.8 mm
04:14 PM 44.1°F6.7°C 41.9°F5.5°C 92% 4.0 mph NNW6.4 kmh NNW 14.1 mph22.7 kmh 30.27 in1025.1 mb 0.03 in0.8 mm 0.12 in3.0 mm 1.33 in33.8 mm
04:09 PM 44.1°F6.7°C 41.9°F5.5°C 92% 4.0 mph NNW6.4 kmh NNW 11.0 mph17.7 kmh 30.27 in1025.1 mb 0.02 in0.5 mm 0.00 in0.0 mm 1.32 in33.5 mm
04:04 PM 44.1°F6.7°C 41.5°F5.3°C 91% 4.0 mph NNW6.4 kmh NNW 10.1 mph16.3 kmh 30.27 in1025.1 mb 0.02 in0.5 mm 0.01 in0.3 mm 1.32 in33.5 mm
03:59 PM 44.1°F6.7°C 41.9°F5.5°C 92% 4.9 mph NNE7.9 kmh NNE 8.9 mph14.3 kmh 30.27 in1025.1 mb 0.01 in0.3 mm 0.00 in0.0 mm 1.32 in33.5 mm
03:54 PM 44.1°F6.7°C 41.5°F5.3°C 91% 4.9 mph NNW7.9 kmh NNW 12.1 mph19.5 kmh 30.27 in1025.1 mb 0.01 in0.3 mm 0.00 in0.0 mm 1.31 in33.3 mm
03:49 PM 44.1°F6.7°C 41.5°F5.3°C 91% 4.0 mph NNW6.4 kmh NNW 13.0 mph20.9 kmh 30.25 in1024.4 mb 0.01 in0.3 mm 0.00 in0.0 mm 1.31 in33.3 mm
03:44 PM 44.1°F6.7°C 41.5°F5.3°C 91% 4.9 mph NNE7.9 kmh NNE 8.9 mph14.3 kmh 30.25 in1024.4 mb 0.01 in0.3 mm 0.12 in3.0 mm 1.31 in33.3 mm
03:39 PM 44.1°F6.7°C 41.5°F5.3°C 91% 4.9 mph N7.9 kmh N 14.1 mph22.7 kmh 30.25 in1024.4 mb 0.00 in0.0 mm 0.00 in0.0 mm 1.30 in33.0 mm
03:34 PM 44.1°F6.7°C 41.5°F5.3°C 91% 4.9 mph N7.9 kmh N 12.1 mph19.5 kmh 30.25 in1024.4 mb 0.00 in0.0 mm 0.00 in0.0 mm 1.30 in33.0 mm
03:29 PM 44.1°F6.7°C 41.5°F5.3°C 91% 6.0 mph WNW9.7 kmh WNW 11.0 mph17.7 kmh 30.26 in1024.7 mb 0.00 in0.0 mm 0.00 in0.0 mm 1.30 in33.0 mm
03:24 PM 44.1°F6.7°C 41.5°F5.3°C 91% 6.0 mph NNW9.7 kmh NNW 13.0 mph20.9 kmh 30.27 in1025.1 mb 0.00 in0.0 mm 0.00 in0.0 mm 1.30 in33.0 mm
03:19 PM 43.9°F6.6°C 41.4°F5.2°C 91% 4.9 mph NNW7.9 kmh NNW 12.1 mph19.5 kmh 30.26 in1024.7 mb 0.00 in0.0 mm 0.00 in0.0 mm 1.30 in33.0 mm
03:14 PM 43.9°F6.6°C 41.7°F5.4°C 92% 6.0 mph N9.7 kmh N 13.0 mph20.9 kmh 30.26 in1024.7 mb 0.00 in0.0 mm 0.00 in0.0 mm 1.30 in33.0 mm
03:09 PM 43.9°F6.6°C 41.7°F5.4°C 92% 4.9 mph NW7.9 kmh NW 13.0 mph20.9 kmh 30.27 in1025.1 mb 0.00 in0.0 mm 0.00 in0.0 mm 1.30 in33.0 mm
03:04 PM 43.9°F6.6°C 41.7°F5.4°C 92% 4.9 mph NW7.9 kmh NW 13.0 mph20.9 kmh 30.26 in1024.7 mb 0.00 in0.0 mm 0.00 in0.0 mm 1.30 in33.0 mm
02:59 PM 43.7°F6.5°C 41.5°F5.3°C 92% 6.0 mph NNW9.7 kmh NNW 11.0 mph17.7 kmh 30.26 in1024.7 mb 0.00 in0.0 mm 0.00 in0.0 mm 1.30 in33.0 mm
02:54 PM 43.7°F6.5°C 41.5°F5.3°C 92% 4.9 mph NNW7.9 kmh NNW 11.0 mph17.7 kmh 30.25 in1024.4 mb 0.00 in0.0 mm 0.00 in0.0 mm 1.30 in33.0 mm
02:49 PM 43.5°F6.4°C 41.4°F5.2°C 92% 4.9 mph NNW7.9 kmh NNW 11.0 mph17.7 kmh 30.26 in1024.7 mb 0.01 in0.3 mm 0.00 in0.0 mm 1.30 in33.0 mm
02:44 PM 43.3°F6.3°C 41.2°F5.1°C 92% 6.0 mph 9.7 kmh 13.0 mph20.9 kmh 30.26 in1024.7 mb 0.01 in0.3 mm 0.00 in0.0 mm 1.30 in33.0 mm
02:39 PM 43.3°F6.3°C 41.2°F5.1°C 92% 4.9 mph NNW7.9 kmh NNW 13.0 mph20.9 kmh 30.26 in1024.7 mb 0.01 in0.3 mm 0.00 in0.0 mm 1.30 in33.0 mm
02:34 PM 43.3°F6.3°C 41.2°F5.1°C 92% 4.9 mph N7.9 kmh N 12.1 mph19.5 kmh 30.26 in1024.7 mb 0.01 in0.3 mm 0.00 in0.0 mm 1.30 in33.0 mm
02:29 PM 43.2°F6.2°C 41.0°F5.0°C 92% 6.0 mph NW9.7 kmh NW 13.0 mph20.9 kmh 30.26 in1024.7 mb 0.01 in0.3 mm 0.00 in0.0 mm 1.30 in33.0 mm
02:24 PM 43.2°F6.2°C 41.0°F5.0°C 92% 6.0 mph NW9.7 kmh NW 14.1 mph22.7 kmh 30.26 in1024.7 mb 0.01 in0.3 mm 0.00 in0.0 mm 1.30 in33.0 mm
02:19 PM 43.2°F6.2°C 41.0°F5.0°C 92% 4.9 mph NE7.9 kmh NE 14.1 mph22.7 kmh 30.26 in1024.7 mb 0.01 in0.3 mm 0.00 in0.0 mm 1.30 in33.0 mm
02:14 PM 43.3°F6.3°C 41.2°F5.1°C 92% 4.0 mph N6.4 kmh N 10.1 mph16.3 kmh 30.26 in1024.7 mb 0.01 in0.3 mm 0.00 in0.0 mm 1.30 in33.0 mm
02:09 PM 43.3°F6.3°C 41.2°F5.1°C 92% 4.9 mph NNW7.9 kmh NNW 10.1 mph16.3 kmh 30.26 in1024.7 mb 0.01 in0.3 mm 0.00 in0.0 mm 1.30 in33.0 mm
02:04 PM 43.2°F6.2°C 41.0°F5.0°C 92% 4.9 mph SW7.9 kmh SW 15.0 mph24.1 kmh 30.26 in1024.7 mb 0.01 in0.3 mm 0.00 in0.0 mm 1.30 in33.0 mm
01:59 PM 43.2°F6.2°C 41.0°F5.0°C 92% 4.9 mph N7.9 kmh N 11.0 mph17.7 kmh 30.27 in1025.1 mb 0.01 in0.3 mm 0.00 in0.0 mm 1.30 in33.0 mm
01:54 PM 43.0°F6.1°C 40.8°F4.9°C 92% 4.9 mph WNW7.9 kmh WNW 11.0 mph17.7 kmh 30.27 in1025.1 mb 0.01 in0.3 mm 0.12 in3.0 mm 1.30 in33.0 mm
01:49 PM 43.0°F6.1°C 41.2°F5.1°C 93% 4.9 mph NNE7.9 kmh NNE 10.1 mph16.3 kmh 30.28 in1025.4 mb 0.00 in0.0 mm 0.00 in0.0 mm 1.29 in32.8 mm
01:44 PM 42.6°F5.9°C 40.5°F4.7°C 92% 4.9 mph N7.9 kmh N 14.1 mph22.7 kmh 30.29 in1025.7 mb 0.01 in0.3 mm 0.00 in0.0 mm 1.29 in32.8 mm
01:39 PM 42.6°F5.9°C 40.5°F4.7°C 92% 6.0 mph NW9.7 kmh NW 14.1 mph22.7 kmh 30.29 in1025.7 mb 0.01 in0.3 mm 0.00 in0.0 mm 1.29 in32.8 mm
01:34 PM 42.4°F5.8°C 40.6°F4.8°C 93% 4.9 mph NNW7.9 kmh NNW 13.0 mph20.9 kmh 30.29 in1025.7 mb 0.01 in0.3 mm 0.00 in0.0 mm 1.29 in32.8 mm
01:29 PM 42.4°F5.8°C 40.6°F4.8°C 93% 4.9 mph NNW7.9 kmh NNW 12.1 mph19.5 kmh 30.29 in1025.7 mb 0.02 in0.5 mm 0.00 in0.0 mm 1.29 in32.8 mm
01:24 PM 42.4°F5.8°C 40.6°F4.8°C 93% 4.9 mph NNE7.9 kmh NNE 11.0 mph17.7 kmh 30.29 in1025.7 mb 0.02 in0.5 mm 0.00 in0.0 mm 1.29 in32.8 mm
01:19 PM 42.4°F5.8°C 40.6°F4.8°C 93% 4.9 mph NNW7.9 kmh NNW 10.1 mph16.3 kmh 30.29 in1025.7 mb 0.03 in0.8 mm 0.00 in0.0 mm 1.29 in32.8 mm
01:14 PM 42.4°F5.8°C 40.6°F4.8°C 93% 4.9 mph NNE7.9 kmh NNE 11.0 mph17.7 kmh 30.29 in1025.7 mb 0.03 in0.8 mm 0.00 in0.0 mm 1.29 in32.8 mm
01:09 PM 42.4°F5.8°C 40.6°F4.8°C 93% 4.9 mph N7.9 kmh N 8.9 mph14.3 kmh 30.30 in1026.1 mb 0.03 in0.8 mm 0.00 in0.0 mm 1.29 in32.8 mm
01:04 PM 42.3°F5.7°C 40.5°F4.7°C 93% 4.9 mph NE7.9 kmh NE 13.0 mph20.9 kmh 30.28 in1025.4 mb 0.04 in1.0 mm 0.00 in0.0 mm 1.29 in32.8 mm
12:59 PM 42.3°F5.7°C 40.5°F4.7°C 93% 4.9 mph 7.9 kmh 13.0 mph20.9 kmh 30.28 in1025.4 mb 0.04 in1.0 mm 0.00 in0.0 mm 1.29 in32.8 mm
12:54 PM 42.3°F5.7°C 40.5°F4.7°C 93% 4.9 mph W7.9 kmh W 10.1 mph16.3 kmh 30.28 in1025.4 mb 0.05 in1.3 mm 0.00 in0.0 mm 1.29 in32.8 mm
12:49 PM 42.3°F5.7°C 40.5°F4.7°C 93% 4.9 mph NW7.9 kmh NW 13.0 mph20.9 kmh 30.28 in1025.4 mb 0.06 in1.5 mm 0.00 in0.0 mm 1.29 in32.8 mm
12:44 PM 42.1°F5.6°C 40.3°F4.6°C 93% 4.9 mph NE7.9 kmh NE 11.0 mph17.7 kmh 30.27 in1025.1 mb 0.07 in1.8 mm 0.00 in0.0 mm 1.28 in32.5 mm
12:39 PM 42.1°F5.6°C 40.3°F4.6°C 93% 4.9 mph N7.9 kmh N 16.1 mph25.9 kmh 30.27 in1025.1 mb 0.08 in2.0 mm 0.00 in0.0 mm 1.28 in32.5 mm
12:34 PM 42.1°F5.6°C 40.5°F4.7°C 94% 4.0 mph NNE6.4 kmh NNE 12.1 mph19.5 kmh 30.27 in1025.1 mb 0.09 in2.3 mm 0.00 in0.0 mm 1.28 in32.5 mm
12:29 PM 41.9°F5.5°C 40.1°F4.5°C 93% 4.0 mph NNW6.4 kmh NNW 10.1 mph16.3 kmh 30.27 in1025.1 mb 0.09 in2.3 mm 0.00 in0.0 mm 1.27 in32.3 mm
12:24 PM 41.7°F5.4°C 39.9°F4.4°C 93% 4.9 mph N7.9 kmh N 8.9 mph14.3 kmh 30.28 in1025.4 mb 0.10 in2.5 mm 0.12 in3.0 mm 1.27 in32.3 mm
12:19 PM 41.7°F5.4°C 39.9°F4.4°C 93% 6.0 mph N9.7 kmh N 14.1 mph22.7 kmh 30.28 in1025.4 mb 0.09 in2.3 mm 0.00 in0.0 mm 1.27 in32.3 mm
12:14 PM 41.7°F5.4°C 39.9°F4.4°C 93% 4.9 mph NW7.9 kmh NW 13.0 mph20.9 kmh 30.27 in1025.1 mb 0.10 in2.5 mm 0.00 in0.0 mm 1.26 in32.0 mm
12:09 PM 41.7°F5.4°C 39.9°F4.4°C 93% 4.0 mph NNE6.4 kmh NNE 11.0 mph17.7 kmh 30.27 in1025.1 mb 0.11 in2.8 mm 0.12 in3.0 mm 1.26 in32.0 mm
12:04 PM 41.5°F5.3°C 39.7°F4.3°C 93% 4.9 mph NE7.9 kmh NE 10.1 mph16.3 kmh 30.28 in1025.4 mb 0.10 in2.5 mm 0.00 in0.0 mm 1.25 in31.8 mm
11:59 AM 41.5°F5.3°C 39.7°F4.3°C 93% 6.0 mph E9.7 kmh E 14.1 mph22.7 kmh 30.28 in1025.4 mb 0.11 in2.8 mm 0.00 in0.0 mm 1.25 in31.8 mm
11:54 AM 41.5°F5.3°C 39.7°F4.3°C 93% 4.9 mph NE7.9 kmh NE 12.1 mph19.5 kmh 30.28 in1025.4 mb 0.12 in3.0 mm 0.00 in0.0 mm 1.24 in31.5 mm
11:49 AM 41.4°F5.2°C 39.6°F4.2°C 93% 4.9 mph NW7.9 kmh NW 10.1 mph16.3 kmh 30.28 in1025.4 mb 0.12 in3.0 mm 0.12 in3.0 mm 1.23 in31.2 mm
11:44 AM 41.4°F5.2°C 39.6°F4.2°C 93% 6.0 mph NE9.7 kmh NE 10.1 mph16.3 kmh 30.28 in1025.4 mb 0.11 in2.8 mm 0.00 in0.0 mm 1.21 in30.7 mm
11:39 AM 41.4°F5.2°C 39.6°F4.2°C 93% 6.9 mph N11.1 kmh N 19.0 mph30.6 kmh 30.28 in1025.4 mb 0.11 in2.8 mm 0.12 in3.0 mm 1.20 in30.5 mm
11:34 AM 41.5°F5.3°C 39.7°F4.3°C 93% 6.9 mph N11.1 kmh N 16.1 mph25.9 kmh 30.28 in1025.4 mb 0.10 in2.5 mm 0.00 in0.0 mm 1.19 in30.2 mm
11:29 AM 41.5°F5.3°C 39.7°F4.3°C 93% 6.9 mph NNW11.1 kmh NNW 15.0 mph24.1 kmh 30.29 in1025.7 mb 0.10 in2.5 mm 0.00 in0.0 mm 1.19 in30.2 mm
11:24 AM 41.4°F5.2°C 39.6°F4.2°C 93% 6.0 mph NW9.7 kmh NW 15.0 mph24.1 kmh 30.28 in1025.4 mb 0.10 in2.5 mm 0.00 in0.0 mm 1.17 in29.7 mm
11:19 AM 41.5°F5.3°C 39.7°F4.3°C 93% 4.9 mph NW7.9 kmh NW 14.1 mph22.7 kmh 30.28 in1025.4 mb 0.10 in2.5 mm 0.10 in2.5 mm 1.17 in29.7 mm
11:13 AM 41.5°F5.3°C 39.7°F4.3°C 93% 4.9 mph NW7.9 kmh NW 11.0 mph17.7 kmh 30.27 in1025.1 mb 0.09 in2.3 mm 0.12 in3.0 mm 1.16 in29.5 mm
11:08 AM 41.4°F5.2°C 39.6°F4.2°C 93% 6.0 mph WNW9.7 kmh WNW 10.1 mph16.3 kmh 30.27 in1025.1 mb 0.08 in2.0 mm 0.00 in0.0 mm 1.15 in29.2 mm
11:03 AM 41.4°F5.2°C 39.2°F4.0°C 92% 6.0 mph NW9.7 kmh NW 12.1 mph19.5 kmh 30.27 in1025.1 mb 0.08 in2.0 mm 0.00 in0.0 mm 1.15 in29.2 mm
10:58 AM 41.5°F5.3°C 39.4°F4.1°C 92% 6.0 mph N9.7 kmh N 13.0 mph20.9 kmh 30.28 in1025.4 mb 0.08 in2.0 mm 0.12 in3.0 mm 1.14 in29.0 mm
10:53 AM 41.4°F5.2°C 39.2°F4.0°C 92% 4.9 mph N7.9 kmh N 15.0 mph24.1 kmh 30.27 in1025.1 mb 0.07 in1.8 mm 0.00 in0.0 mm 1.13 in28.7 mm
10:48 AM 41.5°F5.3°C 39.4°F4.1°C 92% 4.9 mph NW7.9 kmh NW 13.0 mph20.9 kmh 30.26 in1024.7 mb 0.07 in1.8 mm 0.00 in0.0 mm 1.11 in28.2 mm
10:43 AM 41.4°F5.2°C 39.2°F4.0°C 92% 6.0 mph NE9.7 kmh NE 13.0 mph20.9 kmh 30.26 in1024.7 mb 0.07 in1.8 mm 0.00 in0.0 mm 1.10 in27.9 mm
10:38 AM 41.4°F5.2°C 39.2°F4.0°C 92% 6.0 mph N9.7 kmh N 17.9 mph28.8 kmh 30.27 in1025.1 mb 0.07 in1.8 mm 0.00 in0.0 mm 1.09 in27.7 mm
10:33 AM 41.4°F5.2°C 39.2°F4.0°C 92% 6.0 mph NNW9.7 kmh NNW 13.0 mph20.9 kmh 30.26 in1024.7 mb 0.08 in2.0 mm 0.00 in0.0 mm 1.09 in27.7 mm
10:28 AM 41.5°F5.3°C 39.4°F4.1°C 92% 6.0 mph 9.7 kmh 16.1 mph25.9 kmh 30.27 in1025.1 mb 0.09 in2.3 mm 0.12 in3.0 mm 1.08 in27.4 mm
10:23 AM 41.5°F5.3°C 39.4°F4.1°C 92% 6.0 mph NNE9.7 kmh NNE 16.1 mph25.9 kmh 30.26 in1024.7 mb 0.08 in2.0 mm 0.00 in0.0 mm 1.08 in27.4 mm
10:18 AM 41.5°F5.3°C 39.7°F4.3°C 93% 6.9 mph WNW11.1 kmh WNW 17.9 mph28.8 kmh 30.25 in1024.4 mb 0.09 in2.3 mm 0.00 in0.0 mm 1.07 in27.2 mm
10:13 AM 41.4°F5.2°C 39.2°F4.0°C 92% 6.9 mph N11.1 kmh N 17.9 mph28.8 kmh 30.26 in1024.7 mb 0.09 in2.3 mm 0.00 in0.0 mm 1.07 in27.2 mm
10:08 AM 41.4°F5.2°C 39.2°F4.0°C 92% 6.9 mph N11.1 kmh N 17.0 mph27.4 kmh 30.25 in1024.4 mb 0.09 in2.3 mm 0.00 in0.0 mm 1.07 in27.2 mm
10:03 AM 41.4°F5.2°C 39.2°F4.0°C 92% 8.1 mph NE13.0 kmh NE 13.0 mph20.9 kmh 30.25 in1024.4 mb 0.09 in2.3 mm 0.01 in0.3 mm 1.07 in27.2 mm
09:58 AM 41.4°F5.2°C 39.2°F4.0°C 92% 8.9 mph NW14.3 kmh NW 16.1 mph25.9 kmh 30.25 in1024.4 mb 0.08 in2.0 mm 0.00 in0.0 mm 1.06 in26.9 mm
09:53 AM 41.5°F5.3°C 39.4°F4.1°C 92% 8.9 mph WNW14.3 kmh WNW 17.9 mph28.8 kmh 30.26 in1024.7 mb 0.08 in2.0 mm 0.00 in0.0 mm 1.05 in26.7 mm
09:48 AM 41.5°F5.3°C 39.4°F4.1°C 92% 6.9 mph NW11.1 kmh NW 19.0 mph30.6 kmh 30.26 in1024.7 mb 0.09 in2.3 mm 0.00 in0.0 mm 1.04 in26.4 mm
09:43 AM 41.7°F5.4°C 39.6°F4.2°C 92% 6.9 mph NW11.1 kmh NW 16.1 mph25.9 kmh 30.25 in1024.4 mb 0.10 in2.5 mm 0.00 in0.0 mm 1.03 in26.2 mm
09:38 AM 41.9°F5.5°C 39.7°F4.3°C 92% 6.0 mph WNW9.7 kmh WNW 17.0 mph27.4 kmh 30.26 in1024.7 mb 0.10 in2.5 mm 0.00 in0.0 mm 1.02 in25.9 mm
09:33 AM 42.1°F5.6°C 40.3°F4.6°C 93% 6.9 mph NE11.1 kmh NE 15.0 mph24.1 kmh 30.26 in1024.7 mb 0.12 in3.0 mm 0.00 in0.0 mm 1.01 in25.7 mm
09:28 AM 42.1°F5.6°C 39.9°F4.4°C 92% 8.1 mph NNW13.0 kmh NNW 15.0 mph24.1 kmh 30.27 in1025.1 mb 0.12 in3.0 mm 0.00 in0.0 mm 0.99 in25.1 mm
09:23 AM 42.1°F5.6°C 40.3°F4.6°C 93% 6.9 mph NNW11.1 kmh NNW 15.0 mph24.1 kmh 30.27 in1025.1 mb 0.14 in3.6 mm 0.00 in0.0 mm 0.99 in25.1 mm
09:18 AM 42.1°F5.6°C 40.3°F4.6°C 93% 4.9 mph NE7.9 kmh NE 11.0 mph17.7 kmh 30.27 in1025.1 mb 0.14 in3.6 mm 0.00 in0.0 mm 0.98 in24.9 mm
09:13 AM 42.1°F5.6°C 40.3°F4.6°C 93% 6.0 mph NNW9.7 kmh NNW 12.1 mph19.5 kmh 30.27 in1025.1 mb 0.15 in3.8 mm 0.00 in0.0 mm 0.98 in24.9 mm
09:08 AM 41.9°F5.5°C 40.1°F4.5°C 93% 8.1 mph NNW13.0 kmh NNW 16.1 mph25.9 kmh 30.25 in1024.4 mb 0.16 in4.1 mm 0.00 in0.0 mm 0.98 in24.9 mm
09:03 AM 41.9°F5.5°C 40.1°F4.5°C 93% 8.1 mph NNW13.0 kmh NNW 16.1 mph25.9 kmh 30.25 in1024.4 mb 0.16 in4.1 mm 0.00 in0.0 mm 0.98 in24.9 mm
08:58 AM 41.9°F5.5°C 40.1°F4.5°C 93% 6.0 mph NNW9.7 kmh NNW 13.0 mph20.9 kmh 30.24 in1024.0 mb 0.17 in4.3 mm 0.12 in3.0 mm 0.98 in24.9 mm
08:53 AM 42.1°F5.6°C 40.3°F4.6°C 93% 6.9 mph NE11.1 kmh NE 14.1 mph22.7 kmh 30.24 in1024.0 mb 0.16 in4.1 mm 0.12 in3.0 mm 0.97 in24.6 mm
08:48 AM 42.3°F5.7°C 40.6°F4.8°C 94% 6.9 mph NE11.1 kmh NE 13.0 mph20.9 kmh 30.25 in1024.4 mb 0.15 in3.8 mm 0.12 in3.0 mm 0.95 in24.1 mm
08:43 AM 42.3°F5.7°C 40.5°F4.7°C 93% 6.9 mph NNE11.1 kmh NNE 13.0 mph20.9 kmh 30.24 in1024.0 mb 0.14 in3.6 mm 0.00 in0.0 mm 0.93 in23.6 mm
08:38 AM 42.3°F5.7°C 40.6°F4.8°C 94% 6.0 mph NNE9.7 kmh NNE 13.0 mph20.9 kmh 30.23 in1023.7 mb 0.15 in3.8 mm 0.12 in3.0 mm 0.92 in23.4 mm
08:33 AM 42.3°F5.7°C 40.5°F4.7°C 93% 6.9 mph ENE11.1 kmh ENE 14.1 mph22.7 kmh 30.22 in1023.4 mb 0.14 in3.6 mm 0.00 in0.0 mm 0.90 in22.9 mm
08:28 AM 42.3°F5.7°C 40.5°F4.7°C 93% 8.1 mph NNW13.0 kmh NNW 13.0 mph20.9 kmh 30.22 in1023.4 mb 0.14 in3.6 mm 0.24 in6.1 mm 0.88 in22.4 mm
08:23 AM 42.3°F5.7°C 40.5°F4.7°C 93% 8.1 mph NNE13.0 kmh NNE 17.0 mph27.4 kmh 30.22 in1023.4 mb 0.12 in3.0 mm 0.00 in0.0 mm 0.85 in21.6 mm
08:18 AM 42.3°F5.7°C 40.5°F4.7°C 93% 6.9 mph NW11.1 kmh NW 17.0 mph27.4 kmh 30.22 in1023.4 mb 0.13 in3.3 mm 0.12 in3.0 mm 0.84 in21.3 mm
08:13 AM 42.3°F5.7°C 40.5°F4.7°C 93% 6.9 mph NW11.1 kmh NW 13.0 mph20.9 kmh 30.20 in1022.7 mb 0.12 in3.0 mm 0.00 in0.0 mm 0.83 in21.1 mm
08:08 AM 42.3°F5.7°C 40.6°F4.8°C 94% 8.1 mph NNW13.0 kmh NNW 17.0 mph27.4 kmh 30.21 in1023.0 mb 0.12 in3.0 mm 0.00 in0.0 mm 0.82 in20.8 mm
08:03 AM 42.3°F5.7°C 40.5°F4.7°C 93% 8.1 mph 13.0 kmh 16.1 mph25.9 kmh 30.20 in1022.7 mb 0.13 in3.3 mm 0.00 in0.0 mm 0.82 in20.8 mm
07:58 AM 42.4°F5.8°C 40.6°F4.8°C 93% 6.0 mph NW9.7 kmh NW 14.1 mph22.7 kmh 30.20 in1022.7 mb 0.13 in3.3 mm 0.00 in0.0 mm 0.81 in20.6 mm
07:53 AM 42.3°F5.7°C 40.5°F4.7°C 93% 6.0 mph NNE9.7 kmh NNE 15.0 mph24.1 kmh 30.19 in1022.4 mb 0.14 in3.6 mm 0.00 in0.0 mm 0.81 in20.6 mm
07:48 AM 42.3°F5.7°C 40.5°F4.7°C 93% 6.9 mph N11.1 kmh N 14.1 mph22.7 kmh 30.19 in1022.4 mb 0.15 in3.8 mm 0.00 in0.0 mm 0.80 in20.3 mm
07:43 AM 42.3°F5.7°C 40.5°F4.7°C 93% 8.1 mph NE13.0 kmh NE 17.0 mph27.4 kmh 30.19 in1022.4 mb 0.15 in3.8 mm 0.12 in3.0 mm 0.79 in20.1 mm
07:38 AM 42.3°F5.7°C 40.5°F4.7°C 93% 8.1 mph N13.0 kmh N 15.0 mph24.1 kmh 30.19 in1022.4 mb 0.14 in3.6 mm 0.36 in9.1 mm 0.77 in19.6 mm
07:33 AM 42.3°F5.7°C 40.5°F4.7°C 93% 8.1 mph NW13.0 kmh NW 14.1 mph22.7 kmh 30.18 in1022.0 mb 0.11 in2.8 mm 0.12 in3.0 mm 0.75 in19.1 mm
07:28 AM 42.4°F5.8°C 40.6°F4.8°C 93% 8.1 mph N13.0 kmh N 17.9 mph28.8 kmh 30.19 in1022.4 mb 0.10 in2.5 mm 0.12 in3.0 mm 0.73 in18.5 mm
07:23 AM 42.4°F5.8°C 40.6°F4.8°C 93% 8.1 mph NW13.0 kmh NW 15.0 mph24.1 kmh 30.20 in1022.7 mb 0.09 in2.3 mm 0.12 in3.0 mm 0.73 in18.5 mm
07:18 AM 42.6°F5.9°C 40.8°F4.9°C 93% 6.9 mph N11.1 kmh N 16.1 mph25.9 kmh 30.20 in1022.7 mb 0.08 in2.0 mm 0.00 in0.0 mm 0.71 in18.0 mm
07:13 AM 42.4°F5.8°C 40.6°F4.8°C 93% 6.0 mph NW9.7 kmh NW 13.0 mph20.9 kmh 30.19 in1022.4 mb 0.08 in2.0 mm 0.12 in3.0 mm 0.71 in18.0 mm
07:08 AM 42.6°F5.9°C 40.8°F4.9°C 93% 6.0 mph NNW9.7 kmh NNW 12.1 mph19.5 kmh 30.19 in1022.4 mb 0.07 in1.8 mm 0.12 in3.0 mm 0.70 in17.8 mm
07:03 AM 42.6°F5.9°C 40.8°F4.9°C 93% 6.0 mph NNW9.7 kmh NNW 12.1 mph19.5 kmh 30.19 in1022.4 mb 0.06 in1.5 mm 0.01 in0.3 mm 0.69 in17.5 mm
06:58 AM 42.6°F5.9°C 40.8°F4.9°C 93% 6.0 mph NNE9.7 kmh NNE 16.1 mph25.9 kmh 30.20 in1022.7 mb 0.05 in1.3 mm 0.12 in3.0 mm 0.68 in17.3 mm
06:53 AM 42.6°F5.9°C 40.5°F4.7°C 92% 6.9 mph N11.1 kmh N 13.0 mph20.9 kmh 30.20 in1022.7 mb 0.04 in1.0 mm 0.12 in3.0 mm 0.67 in17.0 mm
06:48 AM 42.6°F5.9°C 40.5°F4.7°C 92% 6.9 mph NW11.1 kmh NW 14.1 mph22.7 kmh 30.20 in1022.7 mb 0.03 in0.8 mm 0.12 in3.0 mm 0.66 in16.8 mm
06:43 AM 42.6°F5.9°C 40.5°F4.7°C 92% 6.0 mph NE9.7 kmh NE 13.0 mph20.9 kmh 30.19 in1022.4 mb 0.02 in0.5 mm 0.00 in0.0 mm 0.64 in16.3 mm
06:38 AM 43.0°F6.1°C 41.2°F5.1°C 93% 4.0 mph N6.4 kmh N 12.1 mph19.5 kmh 30.19 in1022.4 mb 0.02 in0.5 mm 0.00 in0.0 mm 0.63 in16.0 mm
06:33 AM 43.0°F6.1°C 40.8°F4.9°C 92% 4.0 mph 6.4 kmh 6.9 mph11.1 kmh 30.19 in1022.4 mb 0.02 in0.5 mm 0.00 in0.0 mm 0.63 in16.0 mm
06:28 AM 42.8°F6.0°C 40.6°F4.8°C 92% 4.9 mph NNW7.9 kmh NNW 10.1 mph16.3 kmh 30.19 in1022.4 mb 0.03 in0.8 mm 0.00 in0.0 mm 0.63 in16.0 mm
06:23 AM 42.8°F6.0°C 40.6°F4.8°C 92% 6.0 mph NW9.7 kmh NW 17.9 mph28.8 kmh 30.18 in1022.0 mb 0.05 in1.3 mm 0.00 in0.0 mm 0.63 in16.0 mm
06:18 AM 43.2°F6.2°C 41.0°F5.0°C 92% 6.0 mph NNW9.7 kmh NNW 17.9 mph28.8 kmh 30.17 in1021.7 mb 0.05 in1.3 mm 0.00 in0.0 mm 0.63 in16.0 mm
06:13 AM 43.0°F6.1°C 40.8°F4.9°C 92% 6.9 mph SW11.1 kmh SW 14.1 mph22.7 kmh 30.18 in1022.0 mb 0.05 in1.3 mm 0.00 in0.0 mm 0.63 in16.0 mm
06:08 AM 42.8°F6.0°C 40.6°F4.8°C 92% 8.1 mph N13.0 kmh N 17.0 mph27.4 kmh 30.18 in1022.0 mb 0.05 in1.3 mm 0.00 in0.0 mm 0.63 in16.0 mm
06:03 AM 42.8°F6.0°C 40.6°F4.8°C 92% 8.1 mph NW13.0 kmh NW 17.9 mph28.8 kmh 30.17 in1021.7 mb 0.06 in1.5 mm 0.00 in0.0 mm 0.63 in16.0 mm
05:58 AM 42.8°F6.0°C 40.6°F4.8°C 92% 6.9 mph NE11.1 kmh NE 13.0 mph20.9 kmh 30.17 in1021.7 mb 0.07 in1.8 mm 0.00 in0.0 mm 0.63 in16.0 mm
05:53 AM 42.8°F6.0°C 40.6°F4.8°C 92% 6.0 mph NW9.7 kmh NW 13.0 mph20.9 kmh 30.18 in1022.0 mb 0.09 in2.3 mm 0.00 in0.0 mm 0.63 in16.0 mm
05:48 AM 42.8°F6.0°C 40.6°F4.8°C 92% 6.9 mph N11.1 kmh N 17.0 mph27.4 kmh 30.17 in1021.7 mb 0.14 in3.6 mm 0.00 in0.0 mm 0.62 in15.7 mm
05:43 AM 42.8°F6.0°C 41.0°F5.0°C 93% 6.0 mph NW9.7 kmh NW 17.0 mph27.4 kmh 30.16 in1021.3 mb 0.15 in3.8 mm 0.12 in3.0 mm 0.62 in15.7 mm
05:38 AM 43.0°F6.1°C 40.8°F4.9°C 92% 6.0 mph NW9.7 kmh NW 14.1 mph22.7 kmh 30.16 in1021.3 mb 0.14 in3.6 mm 0.00 in0.0 mm 0.61 in15.5 mm
05:33 AM 43.0°F6.1°C 40.8°F4.9°C 92% 6.9 mph NNE11.1 kmh NNE 16.1 mph25.9 kmh 30.16 in1021.3 mb 0.17 in4.3 mm 0.00 in0.0 mm 0.61 in15.5 mm
05:28 AM 43.2°F6.2°C 41.0°F5.0°C 92% 6.9 mph NW11.1 kmh NW 15.0 mph24.1 kmh 30.16 in1021.3 mb 0.19 in4.8 mm 0.00 in0.0 mm 0.60 in15.2 mm
05:23 AM 43.2°F6.2°C 41.0°F5.0°C 92% 6.9 mph N11.1 kmh N 15.0 mph24.1 kmh 30.14 in1020.7 mb 0.21 in5.3 mm 0.00 in0.0 mm 0.59 in15.0 mm
05:18 AM 43.2°F6.2°C 41.0°F5.0°C 92% 8.1 mph NW13.0 kmh NW 16.1 mph25.9 kmh 30.16 in1021.3 mb 0.21 in5.3 mm 0.00 in0.0 mm 0.58 in14.7 mm
05:13 AM 43.2°F6.2°C 41.4°F5.2°C 93% 8.1 mph NE13.0 kmh NE 14.1 mph22.7 kmh 30.16 in1021.3 mb 0.21 in5.3 mm 0.00 in0.0 mm 0.58 in14.7 mm
05:08 AM 43.2°F6.2°C 41.4°F5.2°C 93% 8.1 mph NW13.0 kmh NW 14.1 mph22.7 kmh 30.16 in1021.3 mb 0.21 in5.3 mm 0.12 in3.0 mm 0.58 in14.7 mm
05:03 AM 43.3°F6.3°C 41.5°F5.3°C 93% 6.9 mph N11.1 kmh N 15.0 mph24.1 kmh 30.15 in1021.0 mb 0.20 in5.1 mm 0.01 in0.3 mm 0.57 in14.5 mm
04:58 AM 43.3°F6.3°C 41.5°F5.3°C 93% 6.0 mph W9.7 kmh W 14.1 mph22.7 kmh 30.15 in1021.0 mb 0.19 in4.8 mm 0.24 in6.1 mm 0.56 in14.2 mm
04:53 AM 43.7°F6.5°C 41.7°F5.4°C 93% 6.0 mph W9.7 kmh W 13.0 mph20.9 kmh 30.14 in1020.7 mb 0.17 in4.3 mm 0.72 in18.3 mm 0.54 in13.7 mm
04:48 AM 43.9°F6.6°C 41.7°F5.4°C 92% 4.9 mph N7.9 kmh N 13.0 mph20.9 kmh 30.15 in1021.0 mb 0.11 in2.8 mm 0.00 in0.0 mm 0.49 in12.4 mm
04:42 AM 44.1°F6.7°C 41.9°F5.5°C 92% 4.9 mph NNW7.9 kmh NNW 12.1 mph19.5 kmh 30.16 in1021.3 mb 0.11 in2.8 mm 0.00 in0.0 mm 0.47 in11.9 mm
04:37 AM 43.9°F6.6°C 41.7°F5.4°C 92% 6.0 mph NW9.7 kmh NW 11.0 mph17.7 kmh 30.14 in1020.7 mb 0.12 in3.0 mm 0.12 in3.0 mm 0.47 in11.9 mm
04:32 AM 44.1°F6.7°C 41.9°F5.5°C 92% 6.9 mph N11.1 kmh N 14.1 mph22.7 kmh 30.14 in1020.7 mb 0.11 in2.8 mm 0.36 in9.1 mm 0.45 in11.4 mm
04:27 AM 44.2°F6.8°C 42.1°F5.6°C 92% 6.0 mph N9.7 kmh N 14.1 mph22.7 kmh 30.13 in1020.3 mb 0.08 in2.0 mm 0.24 in6.1 mm 0.40 in10.2 mm
04:22 AM 44.4°F6.9°C 42.3°F5.7°C 92% 4.9 mph N7.9 kmh N 14.1 mph22.7 kmh 30.14 in1020.7 mb 0.06 in1.5 mm 0.00 in0.0 mm 0.37 in9.4 mm
04:17 AM 44.2°F6.8°C 42.1°F5.6°C 92% 6.0 mph NW9.7 kmh NW 12.1 mph19.5 kmh 30.12 in1020.0 mb 0.07 in1.8 mm 0.00 in0.0 mm 0.37 in9.4 mm
04:12 AM 44.2°F6.8°C 42.1°F5.6°C 92% 8.1 mph NNW13.0 kmh NNW 14.1 mph22.7 kmh 30.12 in1020.0 mb 0.09 in2.3 mm 0.00 in0.0 mm 0.37 in9.4 mm
04:07 AM 44.2°F6.8°C 42.1°F5.6°C 92% 8.1 mph ENE13.0 kmh ENE 17.0 mph27.4 kmh 30.11 in1019.6 mb 0.11 in2.8 mm 0.00 in0.0 mm 0.37 in9.4 mm
04:02 AM 44.4°F6.9°C 42.3°F5.7°C 92% 8.9 mph NW14.3 kmh NW 17.0 mph27.4 kmh 30.12 in1020.0 mb 0.12 in3.0 mm 0.00 in0.0 mm 0.37 in9.4 mm
03:57 AM 44.6°F7.0°C 42.4°F5.8°C 92% 6.9 mph N11.1 kmh N 16.1 mph25.9 kmh 30.14 in1020.7 mb 0.13 in3.3 mm 0.00 in0.0 mm 0.37 in9.4 mm
03:52 AM 45.1°F7.3°C 43.2°F6.2°C 93% 6.9 mph NNE11.1 kmh NNE 16.1 mph25.9 kmh 30.13 in1020.3 mb 0.14 in3.6 mm 0.00 in0.0 mm 0.37 in9.4 mm
03:47 AM 45.0°F7.2°C 43.0°F6.1°C 93% 6.0 mph NNW9.7 kmh NNW 17.0 mph27.4 kmh 30.11 in1019.6 mb 0.16 in4.1 mm 0.00 in0.0 mm 0.37 in9.4 mm
03:42 AM 45.0°F7.2°C 43.0°F6.1°C 93% 6.0 mph N9.7 kmh N 14.1 mph22.7 kmh 30.09 in1019.0 mb 0.16 in4.1 mm 0.00 in0.0 mm 0.36 in9.1 mm
03:37 AM 45.1°F7.3°C 43.0°F6.1°C 92% 6.9 mph NNW11.1 kmh NNW 13.0 mph20.9 kmh 30.09 in1019.0 mb 0.18 in4.6 mm 0.12 in3.0 mm 0.35 in8.9 mm
03:32 AM 45.3°F7.4°C 43.2°F6.2°C 92% 6.0 mph NW9.7 kmh NW 14.1 mph22.7 kmh 30.08 in1018.6 mb 0.17 in4.3 mm 0.00 in0.0 mm 0.33 in8.4 mm
03:27 AM 45.5°F7.5°C 43.5°F6.4°C 93% 6.0 mph E9.7 kmh E 10.1 mph16.3 kmh 30.09 in1019.0 mb 0.17 in4.3 mm 0.00 in0.0 mm 0.32 in8.1 mm
03:22 AM 45.5°F7.5°C 43.3°F6.3°C 92% 4.9 mph NW7.9 kmh NW 14.1 mph22.7 kmh 30.11 in1019.6 mb 0.19 in4.8 mm 0.00 in0.0 mm 0.31 in7.9 mm
03:17 AM 45.7°F7.6°C 43.5°F6.4°C 92% 6.0 mph NNE9.7 kmh NNE 12.1 mph19.5 kmh 30.14 in1020.7 mb 0.21 in5.3 mm 0.00 in0.0 mm 0.30 in7.6 mm
03:12 AM 45.7°F7.6°C 43.5°F6.4°C 92% 6.9 mph NNW11.1 kmh NNW 13.0 mph20.9 kmh 30.14 in1020.7 mb 0.21 in5.3 mm 0.12 in3.0 mm 0.28 in7.1 mm
03:07 AM 45.9°F7.7°C 43.7°F6.5°C 92% 6.9 mph NE11.1 kmh NE 15.0 mph24.1 kmh 30.10 in1019.3 mb 0.20 in5.1 mm 0.00 in0.0 mm 0.26 in6.6 mm
03:02 AM 46.2°F7.9°C 44.1°F6.7°C 92% 6.0 mph NW9.7 kmh NW 15.0 mph24.1 kmh 30.10 in1019.3 mb 0.22 in5.6 mm 0.00 in0.0 mm 0.25 in6.4 mm
02:57 AM 46.6°F8.1°C 44.6°F7.0°C 93% 4.9 mph NE7.9 kmh NE 13.0 mph20.9 kmh 30.10 in1019.3 mb 0.23 in5.8 mm 0.12 in3.0 mm 0.24 in6.1 mm
02:52 AM 46.8°F8.2°C 44.8°F7.1°C 93% 4.9 mph N7.9 kmh N 12.1 mph19.5 kmh 30.10 in1019.3 mb 0.22 in5.6 mm 0.24 in6.1 mm 0.23 in5.8 mm
02:47 AM 46.8°F8.2°C 44.8°F7.1°C 93% 6.9 mph N11.1 kmh N 13.0 mph20.9 kmh 30.09 in1019.0 mb 0.20 in5.1 mm 0.24 in6.1 mm 0.21 in5.3 mm
02:42 AM 46.8°F8.2°C 44.6°F7.0°C 92% 6.9 mph WNW11.1 kmh WNW 12.1 mph19.5 kmh 30.10 in1019.3 mb 0.18 in4.6 mm 0.24 in6.1 mm 0.20 in5.1 mm
02:37 AM 46.8°F8.2°C 44.6°F7.0°C 92% 6.9 mph NNW11.1 kmh NNW 14.1 mph22.7 kmh 30.10 in1019.3 mb 0.16 in4.1 mm 0.24 in6.1 mm 0.18 in4.6 mm
02:32 AM 46.9°F8.3°C 44.8°F7.1°C 92% 8.1 mph NW13.0 kmh NW 14.1 mph22.7 kmh 30.09 in1019.0 mb 0.14 in3.6 mm 0.12 in3.0 mm 0.16 in4.1 mm
02:27 AM 47.3°F8.5°C 45.1°F7.3°C 92% 6.9 mph WNW11.1 kmh WNW 14.1 mph22.7 kmh 30.10 in1019.3 mb 0.13 in3.3 mm 0.24 in6.1 mm 0.14 in3.6 mm
02:22 AM 47.5°F8.6°C 45.3°F7.4°C 92% 6.9 mph NW11.1 kmh NW 16.1 mph25.9 kmh 30.11 in1019.6 mb 0.11 in2.8 mm 0.36 in9.1 mm 0.13 in3.3 mm
02:17 AM 47.7°F8.7°C 45.1°F7.3°C 91% 6.9 mph NW11.1 kmh NW 16.1 mph25.9 kmh 30.09 in1019.0 mb 0.08 in2.0 mm 0.24 in6.1 mm 0.09 in2.3 mm
02:12 AM 47.7°F8.7°C 45.1°F7.3°C 91% 6.9 mph NE11.1 kmh NE 15.0 mph24.1 kmh 30.09 in1019.0 mb 0.06 in1.5 mm 0.24 in6.1 mm 0.07 in1.8 mm
02:07 AM 47.8°F8.8°C 45.0°F7.2°C 90% 6.9 mph NW11.1 kmh NW 17.9 mph28.8 kmh 30.13 in1020.3 mb 0.04 in1.0 mm 0.24 in6.1 mm 0.05 in1.3 mm
02:02 AM 48.0°F8.9°C 45.1°F7.3°C 90% 6.9 mph NW11.1 kmh NW 17.0 mph27.4 kmh 30.12 in1020.0 mb 0.02 in0.5 mm 0.02 in0.5 mm 0.03 in0.8 mm
01:57 AM 48.2°F9.0°C 45.3°F7.4°C 90% 6.9 mph NNE11.1 kmh NNE 13.0 mph20.9 kmh 30.10 in1019.3 mb 0.00 in0.0 mm 0.00 in0.0 mm 0.01 in0.3 mm
01:52 AM 48.2°F9.0°C 45.1°F7.3°C 89% 6.9 mph NW11.1 kmh NW 19.0 mph30.6 kmh 30.12 in1020.0 mb 0.00 in0.0 mm 0.00 in0.0 mm 0.01 in0.3 mm
01:47 AM 48.4°F9.1°C 45.3°F7.4°C 89% 6.9 mph N11.1 kmh N 16.1 mph25.9 kmh 30.09 in1019.0 mb 0.00 in0.0 mm 0.00 in0.0 mm 0.01 in0.3 mm
01:42 AM 48.6°F9.2°C 45.7°F7.6°C 90% 6.9 mph NE11.1 kmh NE 13.0 mph20.9 kmh 30.08 in1018.6 mb 0.00 in0.0 mm 0.00 in0.0 mm 0.01 in0.3 mm
01:37 AM 48.6°F9.2°C 45.7°F7.6°C 90% 6.9 mph NW11.1 kmh NW 16.1 mph25.9 kmh 30.09 in1019.0 mb 0.00 in0.0 mm 0.00 in0.0 mm 0.01 in0.3 mm
01:32 AM 48.7°F9.3°C 45.9°F7.7°C 90% 6.9 mph NNW11.1 kmh NNW 14.1 mph22.7 kmh 30.07 in1018.3 mb 0.00 in0.0 mm 0.00 in0.0 mm 0.01 in0.3 mm
01:27 AM 48.9°F9.4°C 46.0°F7.8°C 90% 8.1 mph 13.0 kmh 15.0 mph24.1 kmh 30.07 in1018.3 mb 0.00 in0.0 mm 0.00 in0.0 mm 0.01 in0.3 mm
01:22 AM 49.1°F9.5°C 46.0°F7.8°C 89% 8.1 mph NW13.0 kmh NW 16.1 mph25.9 kmh 30.07 in1018.3 mb 0.00 in0.0 mm 0.00 in0.0 mm 0.01 in0.3 mm
01:17 AM 49.5°F9.7°C 46.6°F8.1°C 90% 8.1 mph NW13.0 kmh NW 15.0 mph24.1 kmh 30.06 in1017.9 mb 0.00 in0.0 mm 0.00 in0.0 mm 0.01 in0.3 mm
01:12 AM 49.5°F9.7°C 46.6°F8.1°C 90% 8.1 mph NNE13.0 kmh NNE 14.1 mph22.7 kmh 30.07 in1018.3 mb 0.00 in0.0 mm 0.00 in0.0 mm 0.01 in0.3 mm
01:07 AM 49.6°F9.8°C 46.8°F8.2°C 90% 8.1 mph N13.0 kmh N 15.0 mph24.1 kmh 30.07 in1018.3 mb 0.00 in0.0 mm 0.00 in0.0 mm 0.01 in0.3 mm
01:02 AM 49.8°F9.9°C 47.3°F8.5°C 91% 6.9 mph N11.1 kmh N 16.1 mph25.9 kmh 30.07 in1018.3 mb 0.01 in0.3 mm 0.00 in0.0 mm 0.01 in0.3 mm
12:57 AM 50.0°F10.0°C 47.5°F8.6°C 91% 6.9 mph NNW11.1 kmh NNW 15.0 mph24.1 kmh 30.07 in1018.3 mb 0.01 in0.3 mm 0.00 in0.0 mm 0.01 in0.3 mm
12:52 AM 50.2°F10.1°C 47.7°F8.7°C 91% 6.0 mph NW9.7 kmh NW 16.1 mph25.9 kmh 30.07 in1018.3 mb 0.01 in0.3 mm 0.00 in0.0 mm 0.01 in0.3 mm
12:47 AM 50.2°F10.1°C 48.0°F8.9°C 92% 4.9 mph NW7.9 kmh NW 11.0 mph17.7 kmh 30.08 in1018.6 mb 0.01 in0.3 mm 0.00 in0.0 mm 0.01 in0.3 mm
12:42 AM 50.2°F10.1°C 47.7°F8.7°C 91% 6.0 mph WNW9.7 kmh WNW 13.0 mph20.9 kmh 30.07 in1018.3 mb 0.01 in0.3 mm 0.00 in0.0 mm 0.01 in0.3 mm
12:37 AM 50.2°F10.1°C 47.7°F8.7°C 91% 6.0 mph NNE9.7 kmh NNE 13.0 mph20.9 kmh 30.07 in1018.3 mb 0.01 in0.3 mm 0.00 in0.0 mm 0.01 in0.3 mm
12:32 AM 50.4°F10.2°C 48.2°F9.0°C 92% 6.0 mph N9.7 kmh N 12.1 mph19.5 kmh 30.07 in1018.3 mb 0.01 in0.3 mm 0.00 in0.0 mm 0.01 in0.3 mm
12:27 AM 50.5°F10.3°C 48.4°F9.1°C 92% 6.0 mph 9.7 kmh 12.1 mph19.5 kmh 30.07 in1018.3 mb 0.01 in0.3 mm 0.00 in0.0 mm 0.01 in0.3 mm
12:22 AM 50.7°F10.4°C 48.6°F9.2°C 92% 6.0 mph NNW9.7 kmh NNW 11.0 mph17.7 kmh 30.07 in1018.3 mb 0.01 in0.3 mm 0.00 in0.0 mm 0.01 in0.3 mm
12:17 AM 50.7°F10.4°C 48.6°F9.2°C 92% 8.1 mph NE13.0 kmh NE 16.1 mph25.9 kmh 30.06 in1017.9 mb 0.01 in0.3 mm 0.00 in0.0 mm 0.01 in0.3 mm
12:12 AM 50.7°F10.4°C 48.6°F9.2°C 92% 8.9 mph NNW14.3 kmh NNW 16.1 mph25.9 kmh 30.06 in1017.9 mb 0.01 in0.3 mm 0.12 in3.0 mm 0.01 in0.3 mm
12:07 AM 51.1°F10.6°C 48.9°F9.4°C 92% 8.9 mph NNW14.3 kmh NNW 15.0 mph24.1 kmh 30.06 in1017.9 mb 0.00 in0.0 mm 0.00 in0.0 mm 0.01 in0.3 mm
12:01 AM 51.3°F10.7°C 49.1°F9.5°C 92% 8.1 mph NW13.0 kmh NW 17.9 mph28.8 kmh 30.06 in1017.9 mb 0.00 in0.0 mm 0.00 in0.0 mm 0.00 in0.0 mm